Time;durP1;ratioP1;P1;durP2;ratioP2;P2;SDS_P1;SDS_P2;PMS_P1;PMS_P2;Temp;Humidity;BMP_temperature;BMP_pressure;BME280_temperature;BME280_humidity;BME280_pressure;Samples;Min_cycle;Max_cycle;Signal;HPM_P1;HPM_P2
2022/06/04 00:00:36;;;;;;;;;;;15.70;99.90;;;;;;5056342;28;19912;-86
2022/06/04 00:03:02;;;;;;;;;;;15.70;99.90;;;;;;5057524;28;19950;-86
2022/06/04 00:05:30;;;;;;;;;;;15.70;99.90;;;;;;5056249;28;19909;-86
2022/06/04 00:07:59;;;;;;;;;;;15.70;99.90;;;;;;5058999;28;20280;-86
2022/06/04 00:16:00;;;;;;;;;;;15.80;99.90;;;;;;5057232;28;19963;-85
2022/06/04 00:18:25;;;;;;;;;;;15.80;99.90;;;;;;5057353;28;19987;-85
2022/06/04 00:20:51;;;;;;;;;;;15.70;99.90;;;;;;5055883;28;19944;-85
2022/06/04 00:23:17;;;;;;;;;;;15.60;99.90;;;;;;5055799;28;19909;-85
2022/06/04 00:25:47;;;;;;;;;;;15.50;99.90;;;;;;5056931;28;19960;-85
2022/06/04 00:28:13;;;;;;;;;;;15.40;99.90;;;;;;5056990;28;19999;-85
2022/06/04 00:30:39;;;;;;;;;;;15.30;99.90;;;;;;5056937;28;20005;-85
2022/06/04 00:33:04;;;;;;;;;;;15.20;99.90;;;;;;5055560;28;20050;-85
2022/06/04 00:35:30;;;;;;;;;;;15.20;99.90;;;;;;5057019;28;19908;-85
2022/06/04 00:37:56;;;;;;;;;;;15.20;99.90;;;;;;5055535;28;19908;-85
2022/06/04 00:40:24;;;;;;;;;;;15.20;99.90;;;;;;5055340;28;19905;-85
2022/06/04 00:42:50;;;;;;;;;;;15.20;99.90;;;;;;5056433;28;19935;-85
2022/06/04 00:45:21;;;;;;;;;;;15.20;99.90;;;;;;5056328;28;19908;-85
2022/06/04 00:47:47;;;;;;;;;;;15.30;99.90;;;;;;5057331;28;20422;-85
2022/06/04 00:50:15;;;;;;;;;;;15.20;99.90;;;;;;5055751;28;19908;-86
2022/06/04 00:52:41;;;;;;;;;;;15.10;99.90;;;;;;5055217;28;19904;-85
2022/06/04 00:55:08;;;;;;;;;;;15.00;99.90;;;;;;5056487;28;19909;-85
2022/06/04 00:57:50;;;;;;;;;;;15.00;99.90;;;;;;5055102;28;19911;-85
2022/06/04 01:00:22;;;;;;;;;;;15.00;99.90;;;;;;5055999;28;19928;-85
2022/06/04 01:03:17;;;;;;;;;;;15.00;99.90;;;;;;5054226;28;19905;-85
2022/06/04 01:05:52;;;;;;;;;;;14.90;99.90;;;;;;5041834;28;19905;-85
2022/06/04 01:08:36;;;;;;;;;;;14.90;99.90;;;;;;5052766;28;19911;-85
2022/06/04 01:11:09;;;;;;;;;;;14.80;99.90;;;;;;5034925;28;19909;-85
2022/06/04 01:13:35;;;;;;;;;;;14.80;99.90;;;;;;5035086;28;19912;-85
2022/06/04 01:16:04;;;;;;;;;;;14.80;99.90;;;;;;5034988;28;19905;-85
2022/06/04 01:18:56;;;;;;;;;;;14.80;99.90;;;;;;5035089;28;19927;-85
2022/06/04 01:21:37;;;;;;;;;;;14.80;99.90;;;;;;5012301;28;19952;-85
2022/06/04 01:24:06;;;;;;;;;;;14.80;99.90;;;;;;5036263;28;19940;-85
2022/06/04 01:26:44;;;;;;;;;;;14.70;99.90;;;;;;5037910;28;19962;-85
2022/06/04 01:29:14;;;;;;;;;;;14.70;99.90;;;;;;5055973;28;20328;-85
2022/06/04 01:31:43;;;;;;;;;;;14.70;99.90;;;;;;5054551;28;20360;-85
2022/06/04 01:34:11;;;;;;;;;;;14.70;99.90;;;;;;5055815;28;19908;-85
2022/06/04 01:36:50;;;;;;;;;;;14.70;99.90;;;;;;5054375;28;20379;-85
2022/06/04 01:39:24;;;;;;;;;;;14.60;99.90;;;;;;5054414;28;19904;-85
2022/06/04 01:41:58;;;;;;;;;;;14.50;99.90;;;;;;5054274;28;20406;-85
2022/06/04 01:44:28;;;;;;;;;;;14.50;99.90;;;;;;5054341;28;19905;-85
2022/06/04 01:46:55;;;;;;;;;;;14.50;99.90;;;;;;5055741;28;19909;-85
2022/06/04 01:49:24;;;;;;;;;;;14.40;99.90;;;;;;5054159;28;20315;-85
2022/06/04 01:51:52;;;;;;;;;;;14.40;99.90;;;;;;5053983;28;19905;-85
2022/06/04 01:54:22;;;;;;;;;;;14.40;99.90;;;;;;5054231;28;20066;-85
2022/06/04 01:56:50;;;;;;;;;;;14.40;99.90;;;;;;5053963;28;19940;-85
2022/06/04 01:59:25;;;;;;;;;;;14.40;99.90;;;;;;5053932;28;19912;-85
2022/06/04 02:01:52;;;;;;;;;;;14.50;99.90;;;;;;5054490;28;19912;-85
2022/06/04 02:04:22;;;;;;;;;;;14.50;99.90;;;;;;5055274;28;19915;-85
2022/06/04 02:07:29;;;;;;;;;;;14.50;99.90;;;;;;5053799;28;19948;-85
2022/06/04 02:09:38;;;;;;;;;;;14.50;99.90;;;;;;5054816;28;20424;-85
2022/06/04 02:12:05;;;;;;;;;;;14.50;99.90;;;;;;5052449;28;20272;-85
2022/06/04 02:14:32;;;;;;;;;;;14.50;99.90;;;;;;5053599;28;19905;-85
2022/06/04 02:17:01;;;;;;;;;;;14.50;99.90;;;;;;5053627;28;19909;-84
2022/06/04 02:19:27;;;;;;;;;;;14.50;99.90;;;;;;5053926;28;19909;-84
2022/06/04 02:21:53;;;;;;;;;;;14.40;99.90;;;;;;5054437;28;19991;-85
2022/06/04 02:24:19;;;;;;;;;;;14.40;99.90;;;;;;5054267;28;20361;-84
2022/06/04 02:26:44;;;;;;;;;;;14.40;99.90;;;;;;5053312;28;19916;-84
2022/06/04 02:29:10;;;;;;;;;;;14.40;99.90;;;;;;5053459;28;19999;-85
2022/06/04 02:31:54;;;;;;;;;;;14.40;99.90;;;;;;5054657;28;20376;-85
2022/06/04 02:34:20;;;;;;;;;;;14.40;99.90;;;;;;5053320;28;19923;-84
2022/06/04 02:37:02;;;;;;;;;;;14.30;99.90;;;;;;5054599;28;19999;-84
2022/06/04 02:39:46;;;;;;;;;;;14.30;99.90;;;;;;5054603;28;19934;-84
2022/06/04 02:42:14;;;;;;;;;;;14.20;99.90;;;;;;5053663;28;19919;-84
2022/06/04 02:44:44;;;;;;;;;;;14.10;99.90;;;;;;5053169;28;19905;-85
2022/06/04 02:47:13;;;;;;;;;;;13.90;99.90;;;;;;5054947;28;19905;-85
2022/06/04 02:49:39;;;;;;;;;;;13.80;99.90;;;;;;5054555;28;19912;-85
2022/06/04 02:52:05;;;;;;;;;;;13.60;99.90;;;;;;5052970;28;20388;-85
2022/06/04 02:54:34;;;;;;;;;;;13.60;99.90;;;;;;5052725;28;19905;-84
2022/06/04 02:57:02;;;;;;;;;;;13.50;99.90;;;;;;5053346;28;19912;-84
2022/06/04 02:59:28;;;;;;;;;;;13.50;99.90;;;;;;5052091;28;19912;-84
2022/06/04 03:01:57;;;;;;;;;;;13.60;99.90;;;;;;5053390;28;19960;-84
2022/06/04 03:04:22;;;;;;;;;;;13.60;99.90;;;;;;5052086;28;20293;-84
2022/06/04 03:06:48;;;;;;;;;;;13.60;99.90;;;;;;5051832;28;19912;-84
2022/06/04 03:09:16;;;;;;;;;;;13.70;99.90;;;;;;5053378;28;19905;-84
2022/06/04 03:11:43;;;;;;;;;;;13.70;99.90;;;;;;5052036;28;19904;-84
2022/06/04 03:14:09;;;;;;;;;;;13.70;99.90;;;;;;5052802;28;20333;-84
2022/06/04 03:16:36;;;;;;;;;;;13.70;99.90;;;;;;5054013;28;19939;-84
2022/06/04 03:19:07;;;;;;;;;;;13.70;99.90;;;;;;5053580;28;19905;-85
2022/06/04 03:21:37;;;;;;;;;;;13.70;99.90;;;;;;5053232;28;19905;-84
2022/06/04 03:24:03;;;;;;;;;;;13.60;99.90;;;;;;5051303;28;20357;-84
2022/06/04 03:26:29;;;;;;;4.30;3.00;;;13.50;99.90;;;;;;5052570;28;19943;-84
2022/06/04 03:28:55;;;;;;;5.97;3.33;;;13.40;99.90;;;;;;5052580;28;20237;-84
2022/06/04 03:31:21;;;;;;;4.90;3.55;;;13.40;99.90;;;;;;5052473;28;20029;-84
2022/06/04 03:33:47;;;;;;;4.97;3.17;;;13.40;99.90;;;;;;5053766;28;20032;-84
2022/06/04 03:36:13;;;;;;;3.95;2.55;;;13.40;99.90;;;;;;5054002;28;20026;-84
2022/06/04 03:38:38;;;;;;;4.70;3.22;;;13.30;99.90;;;;;;5052463;28;20020;-84
2022/06/04 03:41:04;;;;;;;5.00;3.10;;;13.40;99.90;;;;;;5053944;28;20029;-84
2022/06/04 03:43:30;;;;;;;4.18;3.00;;;13.40;99.90;;;;;;5052465;28;20021;-84
2022/06/04 03:45:56;;;;;;;3.58;2.80;;;13.40;99.90;;;;;;5052520;28;20037;-84
2022/06/04 03:48:22;;;;;;;5.57;2.75;;;13.40;99.90;;;;;;5052500;28;20029;-84
2022/06/04 03:50:48;;;;;;;4.90;3.10;;;13.50;99.90;;;;;;5053722;28;20033;-84
2022/06/04 03:53:15;;;;;;;6.82;3.03;;;13.40;99.90;;;;;;5053653;28;20384;-84
2022/06/04 03:55:41;;;;;;;5.75;3.20;;;13.50;99.90;;;;;;5052760;28;20017;-84
2022/06/04 03:58:07;;;;;;;3.60;2.42;;;13.50;99.90;;;;;;5053802;28;20021;-84
2022/06/04 04:00:32;;;;;;;4.28;2.53;;;13.50;99.90;;;;;;5052453;28;20032;-84
2022/06/04 04:03:13;;;;;;;3.88;2.40;;;13.50;99.90;;;;;;5053413;28;20548;-84
2022/06/04 04:05:44;;;;;;;7.85;2.75;;;13.50;99.90;;;;;;5054672;28;20432;-84
2022/06/04 04:08:10;;;;;;;5.63;2.72;;;13.40;99.90;;;;;;5053704;28;20029;-84
2022/06/04 04:10:39;;;;;;;3.88;2.90;;;13.40;99.90;;;;;;5054131;28;20151;-84
2022/06/04 04:13:05;;;;;;;5.07;2.47;;;13.40;99.90;;;;;;5052195;28;20131;-84
2022/06/04 04:15:30;;;;;;;6.20;2.90;;;13.40;99.90;;;;;;5052176;28;20057;-84
2022/06/04 04:17:57;;;;;;;4.00;2.83;;;13.40;99.90;;;;;;5053867;28;20077;-85
2022/06/04 04:20:29;;;;;;;5.15;2.70;;;13.40;99.90;;;;;;5054356;28;20507;-83
2022/06/04 04:23:09;;;;;;;3.85;2.40;;;13.50;99.90;;;;;;5056897;28;20031;-84
2022/06/04 04:25:37;;;;;;;4.40;2.88;;;13.50;99.90;;;;;;5062401;28;20120;-85
2022/06/04 04:28:04;;;;;;;3.58;2.58;;;13.50;99.90;;;;;;5059208;28;20481;-85
2022/06/04 04:30:32;;;;;;;6.53;2.72;;;13.50;99.90;;;;;;5055163;28;20083;-84
2022/06/04 04:32:59;;;;;;;5.95;2.70;;;13.50;99.90;;;;;;5055283;28;20017;-84
2022/06/04 04:35:28;;;;;;;5.55;3.22;;;13.60;99.90;;;;;;5054697;28;20024;-83
2022/06/04 04:37:54;;;;;;;6.38;3.42;;;13.60;99.90;;;;;;5057112;28;20040;-84
2022/06/04 04:40:22;;;;;;;4.82;3.40;;;13.60;99.90;;;;;;5056885;28;20061;-84
2022/06/04 04:42:48;;;;;;;6.90;3.95;;;13.60;99.90;;;;;;5058120;28;20032;-85
2022/06/04 04:45:16;;;;;;;5.68;3.78;;;13.70;99.90;;;;;;5056627;28;20393;-84
2022/06/04 04:47:44;;;;;;;4.88;3.00;;;13.70;99.90;;;;;;5057690;28;20029;-84
2022/06/04 04:50:17;;;;;;;7.03;3.22;;;13.70;99.90;;;;;;5056093;28;20039;-84
2022/06/04 04:52:44;;;;;;;6.18;3.30;;;13.70;99.90;;;;;;5057698;28;20115;-84
2022/06/04 04:55:10;;;;;;;6.30;3.70;;;13.70;99.90;;;;;;5057134;28;20037;-84
2022/06/04 04:57:35;;;;;;;7.65;3.67;;;13.70;99.90;;;;;;5057256;28;20479;-83
2022/06/04 05:00:01;;;;;;;5.32;3.50;;;13.80;99.90;;;;;;5057230;28;20033;-83
2022/06/04 05:02:27;;;;;;;4.50;3.25;;;13.80;99.90;;;;;;5055418;28;20033;-84
2022/06/04 05:04:53;;;;;;;5.85;3.75;;;13.80;99.90;;;;;;5055274;28;20444;-83
2022/06/04 05:07:18;;;;;;;6.38;3.60;;;13.80;99.90;;;;;;5055488;28;20033;-83
2022/06/04 05:09:44;;;;;;;6.13;3.40;;;13.90;99.90;;;;;;5056662;28;20056;-83
2022/06/04 05:12:11;;;;;;;5.15;3.38;;;13.90;99.90;;;;;;5057190;28;20021;-84
2022/06/04 05:14:38;;;;;;;4.45;3.38;;;14.00;99.90;;;;;;5055435;28;20063;-83
2022/06/04 05:17:05;;;;;;;5.95;3.55;;;14.00;99.90;;;;;;5055796;28;20021;-83
2022/06/04 05:19:31;;;;;;;6.90;3.85;;;14.10;99.90;;;;;;5054787;28;20124;-83
2022/06/04 05:21:57;;;;;;;6.43;3.65;;;14.10;99.90;;;;;;5055854;28;20108;-83
2022/06/04 05:24:27;;;;;;;7.68;3.65;;;14.20;99.90;;;;;;5055833;28;20025;-83
2022/06/04 05:26:54;;;;;;;5.78;3.83;;;14.20;99.90;;;;;;5054346;28;20481;-83
2022/06/04 05:29:20;;;;;;;8.73;4.03;;;14.30;99.90;;;;;;5056565;28;20084;-83
2022/06/04 05:31:47;;;;;;;10.73;4.65;;;14.30;99.90;;;;;;5055899;28;20071;-83
2022/06/04 05:34:15;;;;;;;8.20;4.50;;;14.40;99.90;;;;;;5054179;28;20017;-83
2022/06/04 05:36:41;;;;;;;8.52;4.65;;;14.40;99.90;;;;;;5055505;28;20021;-83
2022/06/04 05:39:08;;;;;;;9.07;4.15;;;14.40;99.90;;;;;;5055736;28;20373;-83
2022/06/04 05:41:34;;;;;;;6.05;4.07;;;14.50;99.90;;;;;;5055709;28;20029;-84
2022/06/04 05:44:00;;;;;;;8.45;4.07;;;14.60;99.90;;;;;;5053871;28;20424;-83
2022/06/04 05:46:26;;;;;;;6.72;3.92;;;14.70;99.90;;;;;;5055318;28;20017;-83
2022/06/04 05:48:53;;;;;;;7.55;4.35;;;14.80;99.90;;;;;;5055578;28;20025;-83
2022/06/04 05:51:23;;;;;;;6.15;4.18;;;14.90;99.90;;;;;;5055037;28;20032;-83
2022/06/04 05:53:49;;;;;;;9.40;5.00;;;15.00;99.90;;;;;;5055385;28;20095;-83
2022/06/04 05:56:24;;;;;;;7.47;4.45;;;15.10;99.90;;;;;;5055262;28;20108;-83
2022/06/04 05:58:54;;;;;;;6.68;4.03;;;15.30;99.90;;;;;;5055045;28;20025;-83
2022/06/04 06:01:21;;;;;;;7.28;3.85;;;15.30;99.90;;;;;;5054983;28;20067;-83
2022/06/04 06:03:48;;;;;;;9.13;4.22;;;15.40;99.90;;;;;;5055007;28;20021;-83
2022/06/04 06:06:17;;;;;;;6.88;4.30;;;15.50;99.90;;;;;;5054700;28;20074;-83
2022/06/04 06:08:43;;;;;;;6.82;4.43;;;15.60;99.90;;;;;;5055033;28;20075;-83
2022/06/04 06:11:11;;;;;;;10.07;4.97;;;15.70;99.90;;;;;;5054567;28;20028;-83
2022/06/04 06:13:38;;;;;;;7.72;4.78;;;15.80;99.90;;;;;;5054801;28;20021;-83
2022/06/04 06:16:13;;;;;;;7.13;4.38;;;15.90;99.90;;;;;;5054589;28;20021;-83
2022/06/04 06:18:38;;;;;;;5.38;4.10;;;15.90;99.90;;;;;;5053410;28;20552;-83
2022/06/04 06:21:06;;;;;;;11.80;4.60;;;16.00;99.90;;;;;;5054438;28;20112;-83
2022/06/04 06:23:32;;;;;;;8.85;4.50;;;16.20;99.90;;;;;;5054318;28;20086;-83
2022/06/04 06:26:04;;;;;;;8.68;4.93;;;16.20;99.90;;;;;;5054680;28;20033;-83
2022/06/04 06:28:30;;;;;;;7.32;4.50;;;16.30;99.90;;;;;;5054300;28;20558;-83
2022/06/04 06:30:55;;;;;;;6.28;4.30;;;16.40;99.90;;;;;;5052788;28;20025;-83
2022/06/04 06:33:21;;;;;;;9.65;4.40;;;16.60;99.90;;;;;;5054023;28;20108;-83
2022/06/04 06:35:58;;;;;;;7.05;4.10;;;16.70;99.90;;;;;;5054350;28;20028;-83
2022/06/04 06:38:23;;;;;;;8.50;4.53;;;16.80;99.90;;;;;;5052826;28;20021;-83
2022/06/04 06:40:51;;;;;;;10.80;4.47;;;16.90;99.90;;;;;;5053930;28;20021;-83
2022/06/04 06:43:17;;;;;;;6.38;4.28;;;17.00;99.90;;;;;;5054210;28;20068;-83
2022/06/04 06:45:44;;;;;;;6.55;4.57;;;17.10;99.90;;;;;;5052679;28;20021;-83
2022/06/04 06:48:10;;;;;;;7.03;3.80;;;17.20;99.90;;;;;;5053848;28;20036;-83
2022/06/04 06:50:37;;;;;;;8.55;4.15;;;17.40;99.90;;;;;;5053756;28;20036;-83
2022/06/04 06:53:03;;;;;;;9.00;4.45;;;17.50;99.90;;;;;;5053966;28;20082;-83
2022/06/04 06:55:29;;;;;;;6.00;4.30;;;17.70;99.90;;;;;;5052616;28;20021;-83
2022/06/04 06:57:54;;;;;;;6.97;4.30;;;17.90;99.90;;;;;;5052963;28;20051;-83
2022/06/04 07:00:20;;;;;;;10.48;4.90;;;18.10;99.90;;;;;;5052436;28;20500;-83
2022/06/04 07:02:46;;;;;;;6.88;4.07;;;18.20;99.90;;;;;;5053803;28;20035;-83
2022/06/04 07:05:13;;;;;;;9.77;5.10;;;18.30;99.90;;;;;;5053606;28;20028;-83
2022/06/04 07:07:40;;;;;;;5.60;3.90;;;18.50;99.90;;;;;;5053577;28;20021;-83
2022/06/04 07:10:06;;;;;;;10.15;4.65;;;18.60;99.90;;;;;;5053542;28;20492;-84
2022/06/04 07:12:32;;;;;;;9.15;4.35;;;18.70;99.90;;;;;;5052308;28;20381;-83
2022/06/04 07:15:01;;;;;;;7.80;4.32;;;18.80;99.90;;;;;;5053475;28;20029;-83
2022/06/04 07:17:26;;;;;;;9.55;4.60;;;19.00;99.90;;;;;;5053632;28;20037;-83
2022/06/04 07:19:52;;;;;;;7.22;4.50;;;19.10;99.90;;;;;;5053615;28;20033;-84
2022/06/04 07:22:18;;;;;;;6.40;3.92;;;19.20;99.90;;;;;;5053675;28;20536;-84
2022/06/04 07:24:44;;;;;;;7.53;4.22;;;19.30;99.90;;;;;;5053722;28;20033;-84
2022/06/04 07:27:09;;;;;;;7.60;4.32;;;19.50;99.90;;;;;;5051955;28;20047;-83
2022/06/04 07:29:36;;;;;;;8.00;4.40;;;19.60;99.90;;;;;;5053542;28;20082;-84
2022/06/04 07:32:03;;;;;;;6.85;4.18;;;19.70;99.90;;;;;;5052321;28;20025;-84
2022/06/04 07:34:28;;;;;;;9.32;4.20;;;19.70;99.90;;;;;;5053201;28;20032;-84
2022/06/04 07:36:54;;;;;;;6.53;3.88;;;19.90;99.90;;;;;;5053294;28;20017;-84
2022/06/04 07:39:20;;;;;;;5.65;3.75;;;19.90;99.90;;;;;;5053317;28;20029;-84
2022/06/04 07:41:53;;;;;;;7.85;4.50;;;20.10;99.90;;;;;;5051960;28;20116;-84
2022/06/04 07:44:21;;;;;;;11.25;4.25;;;20.20;99.90;;;;;;5053696;28;20028;-84
2022/06/04 07:46:48;;;;;;;7.15;3.53;;;20.30;99.90;;;;;;5052075;28;20542;-84
2022/06/04 07:49:14;;;;;;;5.45;3.88;;;20.30;99.90;;;;;;5052012;28;20052;-84
2022/06/04 07:51:42;;;;;;;7.07;4.00;;;20.40;99.90;;;;;;5053114;28;20021;-84
2022/06/04 07:54:09;;;;;;;5.60;3.67;;;20.50;99.90;;;;;;5053153;28;20025;-83
2022/06/04 07:56:36;;;;;;;7.40;3.80;;;20.70;99.90;;;;;;5053551;28;20021;-83
2022/06/04 07:59:03;;;;;;;6.13;3.28;;;20.80;99.90;;;;;;5053112;28;20041;-83
2022/06/04 08:01:29;;;;;;;8.35;4.05;;;20.90;99.90;;;;;;5051756;28;20025;-84
2022/06/04 08:03:55;;;;;;;7.53;3.33;;;21.10;99.90;;;;;;5053203;28;20044;-83
2022/06/04 08:06:22;;;;;;;5.97;3.25;;;21.10;99.90;;;;;;5051945;28;20059;-84
2022/06/04 08:08:50;;;;;;;5.53;2.92;;;21.30;99.90;;;;;;5052960;28;20079;-84
2022/06/04 08:11:31;;;;;;;;;;;21.50;99.90;;;;;;5056789;28;20029;-84
2022/06/04 08:14:21;;;;;;;;;;;21.60;99.90;;;;;;5056214;28;20096;-83
2022/06/04 08:16:54;;;;;;;;;;;21.60;99.90;;;;;;5056347;28;24102;-84
2022/06/04 08:19:24;;;;;;;;;;;21.70;99.90;;;;;;5056148;28;20049;-84
2022/06/04 08:21:51;;;;;;;;;;;21.70;99.90;;;;;;5054627;28;19905;-84
2022/06/04 08:24:20;;;;;;;;;;;21.80;99.90;;;;;;5056532;28;19930;-84
2022/06/04 08:26:46;;;;;;;;;;;21.90;99.90;;;;;;5055158;28;19916;-84
2022/06/04 08:29:12;;;;;;;;;;;22.00;99.90;;;;;;5055519;28;19905;-84
2022/06/04 08:31:38;;;;;;;;;;;22.10;99.90;;;;;;5053959;28;19916;-84
2022/06/04 08:34:04;;;;;;;;;;;22.30;99.90;;;;;;5056369;28;19905;-84
2022/06/04 08:36:30;;;;;;;;;;;22.50;99.90;;;;;;5057009;28;19912;-84
2022/06/04 08:38:55;;;;;;;;;;;22.60;99.90;;;;;;5056407;28;19904;-84
2022/06/04 08:41:38;;;;;;;;;;;22.70;99.90;;;;;;5056062;28;19909;-84
2022/06/04 08:44:10;;;;;;;;;;;22.80;99.90;;;;;;5057182;28;20276;-84
2022/06/04 08:46:41;;;;;;;;;;;22.90;99.90;;;;;;5055175;28;19928;-84
2022/06/04 08:49:14;;;;;;;;;;;23.00;99.90;;;;;;5055945;28;20345;-84
2022/06/04 08:51:44;;;;;;;;;;;23.10;99.90;;;;;;5054801;28;19913;-84
2022/06/04 08:59:59;;;;;;;;;;;23.30;99.90;;;;;;5062501;28;19978;-84
2022/06/04 09:02:29;;;;;;;;;;;23.40;99.90;;;;;;5057095;28;19908;-84
2022/06/04 09:05:20;;;;;;;;;;;23.50;99.90;;;;;;5061963;28;20336;-84
2022/06/04 09:07:59;;;;;;;;;;;23.60;99.70;;;;;;5037000;28;19905;-85
2022/06/04 09:10:34;;;;;;;;;;;23.70;99.90;;;;;;5053959;28;19917;-85
2022/06/04 09:13:06;;;;;;;;;;;23.90;99.40;;;;;;5055852;28;19908;-84
2022/06/04 09:15:46;;;;;;;;;;;24.10;99.40;;;;;;5069948;28;19913;-85
2022/06/04 09:18:32;;;;;;;;;;;24.20;98.90;;;;;;5068792;28;19963;-84
2022/06/04 09:21:01;;;;;;;;;;;24.20;99.00;;;;;;5046303;28;19984;-84
2022/06/04 09:23:27;;;;;;;;;;;24.10;98.50;;;;;;5038883;28;19911;-84
2022/06/04 09:25:58;;;;;;;;;;;24.20;99.40;;;;;;5055291;28;19905;-83
2022/06/04 09:28:33;;;;;;;;;;;24.40;99.90;;;;;;5056288;28;19913;-83
2022/06/04 09:31:05;;;;;;;;;;;24.60;98.20;;;;;;5056324;28;19915;-84
2022/06/04 09:33:37;;;;;;;;;;;24.70;94.80;;;;;;5054832;28;20422;-84
2022/06/04 09:36:03;;;;;;;;;;;24.90;94.10;;;;;;5056098;28;19947;-85
2022/06/04 09:38:31;;;;;;;;;;;25.10;93.70;;;;;;5055951;28;19908;-84
2022/06/04 09:41:01;;;;;;;;;;;25.30;93.40;;;;;;5056068;28;19956;-84
2022/06/04 09:43:27;;;;;;;;;;;25.40;91.90;;;;;;5054639;28;19904;-84
2022/06/04 09:45:55;;;;;;;;;;;25.40;90.40;;;;;;5054615;28;20003;-83
2022/06/04 09:48:22;;;;;;;;;;;25.40;91.20;;;;;;5055028;28;19911;-84
2022/06/04 09:50:53;;;;;;;;;;;25.30;94.20;;;;;;5054464;28;19913;-83
2022/06/04 09:53:21;;;;;;;;;;;25.40;90.90;;;;;;5054076;28;20387;-83
2022/06/04 09:55:52;;;;;;;;;;;25.50;89.30;;;;;;5056569;28;19926;-83
2022/06/04 09:58:29;;;;;;;;;;;25.60;90.10;;;;;;5056249;28;19909;-83
2022/06/04 10:01:02;;;;;;;;;;;25.80;88.10;;;;;;5055784;28;19905;-83
2022/06/04 10:03:29;;;;;;;;;;;25.90;87.20;;;;;;5054370;28;19967;-83
2022/06/04 10:06:03;;;;;;;;;;;26.10;83.30;;;;;;5055616;28;19954;-83
2022/06/04 10:08:29;;;;;;;;;;;26.20;77.60;;;;;;5055664;28;19908;-83
2022/06/04 10:11:04;;;;;;;;;;;26.30;75.50;;;;;;5055444;28;20062;-83
2022/06/04 10:13:45;;;;;;;;;;;26.40;78.40;;;;;;5055756;28;19999;-83
2022/06/04 10:16:17;;;;;;;;;;;26.50;76.00;;;;;;5055571;28;19944;-83
2022/06/04 10:19:13;;;;;;;;;;;26.50;79.30;;;;;;5056085;28;19904;-83
2022/06/04 10:21:41;;;;;;;;;;;26.50;76.70;;;;;;5056570;28;19905;-83
2022/06/04 10:24:18;;;;;;;;;;;26.70;77.70;;;;;;5057511;28;20263;-83
2022/06/04 10:26:44;;;;;;;;;;;26.80;77.40;;;;;;5055526;28;19919;-84
2022/06/04 10:29:22;;;;;;;;;;;26.90;79.60;;;;;;5056452;28;19995;-84
2022/06/04 10:31:58;;;;;;;;;;;27.00;80.60;;;;;;5054386;28;19936;-83
2022/06/04 10:34:27;;;;;;;;;;;27.10;76.10;;;;;;5053111;28;19911;-83
2022/06/04 10:37:11;;;;;;;;;;;27.10;78.30;;;;;;5057708;28;19911;-83
2022/06/04 10:39:37;;;;;;;;;;;27.20;76.80;;;;;;5056389;28;19954;-83
2022/06/04 10:42:06;;;;;;;;;;;27.30;74.90;;;;;;5055226;28;20276;-83
2022/06/04 10:44:31;;;;;;;;;;;27.30;75.30;;;;;;5054306;28;19904;-83
2022/06/04 10:47:19;;;;;;;;;;;27.40;73.20;;;;;;5054012;28;19909;-83
2022/06/04 10:49:44;;;;;;;;;;;27.50;71.30;;;;;;5054183;28;19908;-83
2022/06/04 10:52:24;;;;;;;;;;;27.70;70.60;;;;;;5055473;28;19911;-83
2022/06/04 10:54:56;;;;;;;;;;;27.70;68.10;;;;;;5055735;28;19905;-82
2022/06/04 10:57:26;;;;;;;;;;;27.70;69.80;;;;;;5056156;28;20375;-83
2022/06/04 10:59:52;;;;;;;;;;;27.70;71.00;;;;;;5055744;28;19912;-83
2022/06/04 11:02:36;;;;;;;;;;;27.80;73.40;;;;;;5053834;28;20365;-83
2022/06/04 11:05:08;;;;;;;;;;;27.90;69.90;;;;;;5053979;28;19905;-83
2022/06/04 11:07:40;;;;;;;;;;;28.00;70.90;;;;;;5054991;28;19905;-83
2022/06/04 11:10:07;;;;;;;;;;;28.10;69.30;;;;;;5055275;28;19908;-82
2022/06/04 11:13:07;;;;;;;;;;;28.20;65.80;;;;;;5054817;28;19982;-83
2022/06/04 11:15:35;;;;;;;;;;;28.30;64.40;;;;;;5013076;28;19906;-83
2022/06/04 11:18:12;;;;;;;;;;;28.30;63.70;;;;;;5047035;28;19904;-82
2022/06/04 11:20:42;;;;;;;;;;;28.30;59.20;;;;;;5055765;28;20118;-83
2022/06/04 11:23:28;;;;;;;;;;;28.30;61.80;;;;;;5055364;28;19936;-82
2022/06/04 11:25:56;;;;;;;;;;;28.20;62.20;;;;;;5053600;28;19938;-83
2022/06/04 11:28:24;;;;;;;;;;;28.30;58.20;;;;;;5052713;28;19963;-82
2022/06/04 11:30:52;;;;;;;;;;;28.30;60.60;;;;;;5053993;28;19913;-82
2022/06/04 11:33:24;;;;;;;;;;;28.40;61.70;;;;;;5054061;28;19909;-82
2022/06/04 11:35:57;;;;;;;;;;;28.40;56.00;;;;;;5054068;28;19905;-82
2022/06/04 11:38:25;;;;;;;;;;;28.50;55.80;;;;;;5054521;28;19905;-82
2022/06/04 11:40:56;;;;;;;;;;;28.60;55.30;;;;;;5053996;28;19940;-82
2022/06/04 11:43:28;;;;;;;;;;;28.70;59.00;;;;;;5054046;28;19904;-82
2022/06/04 11:45:57;;;;;;;;;;;28.70;60.20;;;;;;5058264;28;19999;-82
2022/06/04 11:48:42;;;;;;;;;;;28.80;57.80;;;;;;5057608;28;19905;-82
2022/06/04 11:51:26;;;;;;;;;;;28.80;57.50;;;;;;5058237;28;19931;-82
2022/06/04 11:54:15;;;;;;;;;;;29.00;60.40;;;;;;5058451;28;19904;-82
2022/06/04 11:56:49;;;;;;;;;;;29.20;56.40;;;;;;5052435;28;19904;-82
2022/06/04 11:59:15;;;;;;;;;;;29.30;56.60;;;;;;5057772;28;19915;-82
2022/06/04 12:01:44;;;;;;;;;;;29.40;60.30;;;;;;5057734;28;19931;-82
2022/06/04 12:04:17;;;;;;;;;;;29.50;58.30;;;;;;5057832;28;19909;-82
2022/06/04 12:06:47;;;;;;;;;;;29.50;58.30;;;;;;5057662;28;19905;-82
2022/06/04 12:09:31;;;;;;;;;;;29.60;58.50;;;;;;5056244;28;19912;-82
2022/06/04 12:12:04;;;;;;;;;;;29.70;60.60;;;;;;5057814;28;19909;-82
2022/06/04 12:14:35;;;;;;;;;;;29.80;60.90;;;;;;5057387;28;19905;-82
2022/06/04 12:17:10;;;;;;;;;;;29.90;60.70;;;;;;5056770;28;19908;-82
2022/06/04 12:25:10;;;;;;;;;;;29.90;61.00;;;;;;5057838;28;20379;-82
2022/06/04 12:27:38;;;;;;;;;;;29.90;59.70;;;;;;5057978;28;19918;-82
2022/06/04 12:30:15;;;;;;;;;;;29.90;60.70;;;;;;5057628;28;19909;-82
2022/06/04 12:32:41;;;;;;;;;;;29.90;58.30;;;;;;5056284;28;19904;-82
2022/06/04 12:35:09;;;;;;;;;;;29.90;58.60;;;;;;5056974;28;19905;-82
2022/06/04 12:37:39;;;;;;;;;;;29.90;59.10;;;;;;5056929;28;19944;-82
2022/06/04 12:40:20;;;;;;;;;;;29.90;59.20;;;;;;5056800;28;19905;-82
2022/06/04 12:42:57;;;;;;;;;;;29.90;59.20;;;;;;5056683;28;19904;-82
2022/06/04 12:45:32;;;;;;;;;;;29.90;60.40;;;;;;5056752;28;19900;-82
2022/06/04 12:47:58;;;;;;;;;;;29.90;57.80;;;;;;5056629;28;20320;-82
2022/06/04 12:50:27;;;;;;;;;;;29.90;58.80;;;;;;5056462;28;19908;-81
2022/06/04 12:53:24;;;;;;;;;;;29.90;58.00;;;;;;5056334;28;20356;-82
2022/06/04 12:55:58;;;;;;;;;;;30.00;56.40;;;;;;5032553;28;19904;-81
2022/06/04 12:58:29;;;;;;;;;;;29.90;59.20;;;;;;5056415;28;19948;-81
2022/06/04 13:00:57;;;;;;;;;;;29.90;59.70;;;;;;5056695;28;20280;-81
2022/06/04 13:03:28;;;;;;;;;;;29.90;58.80;;;;;;5053606;28;19947;-81
2022/06/04 13:06:12;;;;;;;;;;;29.90;58.00;;;;;;5053479;28;19913;-82
2022/06/04 13:08:51;;;;;;;;;;;29.70;57.50;;;;;;5059723;28;19987;-81
2022/06/04 13:11:26;;;;;;;;;;;29.70;59.10;;;;;;5052607;28;21879;-82
2022/06/04 13:13:51;;;;;;;;;;;29.70;59.40;;;;;;5056973;28;19951;-82
2022/06/04 13:16:27;;;;;;;;;;;29.80;58.30;;;;;;5054041;28;19948;-81
2022/06/04 13:19:08;;;;;;;;;;;29.80;56.20;;;;;;5055761;28;19913;-82
2022/06/04 13:21:35;;;;;;;;;;;29.90;59.20;;;;;;5049859;28;19909;-82
2022/06/04 13:24:04;;;;;;;;;;;29.90;57.70;;;;;;5053545;28;19909;-82
2022/06/04 13:26:34;;;;;;;;;;;30.00;58.50;;;;;;5051998;28;19958;-81
2022/06/04 13:29:01;;;;;;;;;;;29.70;59.20;;;;;;5052643;28;19988;-81
2022/06/04 13:31:32;;;;;;;;;;;29.60;58.70;;;;;;5059987;28;19912;-81
2022/06/04 13:34:13;;;;;;;;;;;29.50;59.20;;;;;;5055108;28;19975;-81
2022/06/04 13:36:39;;;;;;;;;;;29.50;59.70;;;;;;5054842;28;19913;-81
2022/06/04 13:39:10;;;;;;;;;;;29.40;59.10;;;;;;5071553;28;19958;-81
2022/06/04 13:44:20;;;;;;;;;;;29.20;61.00;;;;;;5055795;28;19912;-81
2022/06/04 13:46:45;;;;;;;;;;;29.10;60.30;;;;;;5055423;28;19905;-81
2022/06/04 13:49:15;;;;;;;;;;;29.20;61.30;;;;;;5055378;28;20380;-81
2022/06/04 13:51:43;;;;;;;;;;;29.20;61.40;;;;;;5055733;28;19909;-81
2022/06/04 13:54:19;;;;;;;;;;;29.20;60.30;;;;;;5055210;28;19916;-81
2022/06/04 13:56:45;;;;;;;;;;;29.30;62.20;;;;;;5055585;28;19904;-81
2022/06/04 13:59:36;;;;;;;;;;;29.30;62.20;;;;;;5055515;28;19904;-81
2022/06/04 14:02:04;;;;;;;;;;;29.20;61.00;;;;;;5065916;28;19904;-80
2022/06/04 14:07:15;;;;;;;;;;;28.80;63.30;;;;;;5055429;28;20039;-81
2022/06/04 14:09:51;;;;;;;;;;;28.90;62.80;;;;;;5056471;28;19913;-81
2022/06/04 14:12:37;;;;;;;;;;;29.00;62.30;;;;;;5055260;28;19924;-81
2022/06/04 14:15:03;;;;;;;;;;;29.00;62.30;;;;;;5055187;28;19905;-81
2022/06/04 14:17:40;;;;;;;;;;;28.90;62.70;;;;;;5055023;28;19909;-80
2022/06/04 14:20:29;;;;;;;;;;;28.80;62.90;;;;;;5055172;28;19905;-81
2022/06/04 14:23:13;;;;;;;;;;;28.90;63.70;;;;;;5049341;28;19912;-81